createdAt,value
2019-01-06T00:19:47.460Z,15.67
2019-01-06T00:39:56.928Z,9.51
2019-01-06T01:00:06.414Z,9.18
2019-01-06T01:20:15.876Z,9.55
2019-01-06T01:40:25.329Z,8.86
2019-01-06T02:00:37.148Z,8.35
2019-01-06T02:20:36.685Z,7.13
2019-01-06T02:40:46.193Z,9.64
2019-01-06T03:00:55.654Z,7.94
2019-01-06T03:21:05.264Z,8.93
2019-01-06T03:41:14.684Z,8.82
2019-01-06T04:01:26.487Z,9.46
2019-01-06T04:21:26.070Z,13.35
2019-01-06T04:41:35.580Z,10.08
2019-01-06T05:01:45.021Z,11.32
2019-01-06T05:21:54.619Z,13.78
2019-01-06T05:42:02.707Z,13.45
2019-01-06T06:02:12.294Z,16.50
2019-01-06T06:22:21.839Z,14.58
2019-01-06T06:42:31.333Z,13.28
2019-01-06T07:02:45.461Z,15.49
2019-01-06T07:22:45.063Z,13.07
2019-01-06T07:42:54.649Z,13.61
2019-01-06T08:03:04.248Z,14.54
2019-01-06T08:23:15.945Z,16.33
2019-01-06T08:43:15.515Z,18.41
2019-01-06T09:03:24.882Z,16.01
2019-01-06T09:23:34.514Z,12.38
2019-01-06T09:43:44.063Z,17.12
2019-01-06T10:03:53.596Z,17.23
2019-01-06T10:24:05.595Z,16.05
2019-01-06T10:44:05.165Z,17.39
2019-01-06T11:04:14.753Z,17.95
2019-01-06T11:24:24.385Z,15.32
2019-01-06T11:44:33.981Z,13.99
2019-01-06T12:04:45.861Z,13.69
2019-01-06T12:24:45.236Z,13.13
2019-01-06T12:44:55.591Z,12.62
2019-01-06T13:04:55.179Z,16.67
2019-01-06T13:25:04.656Z,14.56
2019-01-06T13:45:20.952Z,14.02
2019-01-06T14:05:20.484Z,14.25
2019-01-06T14:25:29.843Z,14.98
2019-01-06T14:45:41.795Z,13.81
2019-01-06T15:05:41.341Z,13.05
2019-01-06T15:25:50.993Z,13.79
2019-01-06T16:06:13.293Z,17.85
2019-01-06T16:26:18.363Z,22.56
2019-01-06T16:46:23.623Z,18.41
2019-01-06T17:06:23.968Z,18.87
2019-01-06T17:26:28.772Z,19.52
2019-01-06T17:46:36.189Z,15.39
2019-01-06T18:06:41.283Z,15.60
2019-01-06T18:26:40.810Z,12.98
2019-01-06T18:46:57.620Z,12.04
2019-01-06T19:07:02.550Z,12.88
2019-01-06T19:27:08.464Z,15.35
2019-01-06T19:47:15.238Z,14.58
2019-01-06T20:07:20.359Z,15.19
2019-01-06T20:27:25.252Z,18.56
2019-01-06T20:47:24.880Z,18.16
2019-01-06T21:07:34.504Z,16.04
2019-01-06T21:27:44.164Z,19.31
2019-01-06T21:47:53.725Z,18.23
2019-01-06T22:08:03.356Z,21.66
2019-01-06T22:28:15.155Z,18.98
2019-01-06T22:48:14.756Z,23.64
2019-01-06T23:08:24.396Z,20.74
2019-01-06T23:28:33.865Z,20.12
2019-01-06T23:48:43.388Z,19.86
